sensor_id;sensor_type;location;lat;lon;timestamp;temperature;humidity
11501;DHT22;5807;51.606;7.624;2022-09-20T00:02:01;8.70;99.90
11501;DHT22;5807;51.606;7.624;2022-09-20T00:04:28;8.70;99.90
11501;DHT22;5807;51.606;7.624;2022-09-20T00:06:55;6.30;99.90
11501;DHT22;5807;51.606;7.624;2022-09-20T00:09:23;8.70;99.90
11501;DHT22;5807;51.606;7.624;2022-09-20T00:11:50;8.70;99.90
11501;DHT22;5807;51.606;7.624;2022-09-20T00:14:17;9.20;99.90
11501;DHT22;5807;51.606;7.624;2022-09-20T00:16:44;8.60;99.90
11501;DHT22;5807;51.606;7.624;2022-09-20T00:19:16;8.50;99.90
11501;DHT22;5807;51.606;7.624;2022-09-20T00:21:43;8.50;99.90
11501;DHT22;5807;51.606;7.624;2022-09-20T00:24:10;8.50;99.90
11501;DHT22;5807;51.606;7.624;2022-09-20T00:26:38;8.50;99.90
11501;DHT22;5807;51.606;7.624;2022-09-20T00:29:08;8.50;99.90
11501;DHT22;5807;51.606;7.624;2022-09-20T00:31:36;8.50;99.90
11501;DHT22;5807;51.606;7.624;2022-09-20T00:34:04;8.50;99.90
11501;DHT22;5807;51.606;7.624;2022-09-20T00:36:49;8.50;99.90
11501;DHT22;5807;51.606;7.624;2022-09-20T00:39:16;8.40;99.90
11501;DHT22;5807;51.606;7.624;2022-09-20T00:41:44;8.50;99.90
11501;DHT22;5807;51.606;7.624;2022-09-20T00:44:43;8.40;99.90
11501;DHT22;5807;51.606;7.624;2022-09-20T00:47:18;8.40;99.90
11501;DHT22;5807;51.606;7.624;2022-09-20T00:49:48;8.30;99.90
11501;DHT22;5807;51.606;7.624;2022-09-20T00:52:16;8.30;99.90
11501;DHT22;5807;51.606;7.624;2022-09-20T00:54:43;8.30;99.90
11501;DHT22;5807;51.606;7.624;2022-09-20T00:57:12;8.30;99.90
11501;DHT22;5807;51.606;7.624;2022-09-20T00:59:40;8.30;99.90
11501;DHT22;5807;51.606;7.624;2022-09-20T01:02:12;8.30;99.90
11501;DHT22;5807;51.606;7.624;2022-09-20T01:04:42;8.30;99.90
11501;DHT22;5807;51.606;7.624;2022-09-20T01:07:11;8.30;99.90
11501;DHT22;5807;51.606;7.624;2022-09-20T01:09:39;8.40;99.90
11501;DHT22;5807;51.606;7.624;2022-09-20T01:12:11;8.10;99.90
11501;DHT22;5807;51.606;7.624;2022-09-20T01:14:41;11.80;99.90
11501;DHT22;5807;51.606;7.624;2022-09-20T01:17:09;9.70;99.90
11501;DHT22;5807;51.606;7.624;2022-09-20T01:19:39;8.50;99.90
11501;DHT22;5807;51.606;7.624;2022-09-20T01:22:19;8.50;99.90
11501;DHT22;5807;51.606;7.624;2022-09-20T01:24:50;8.10;99.90
11501;DHT22;5807;51.606;7.624;2022-09-20T01:27:36;8.50;99.90
11501;DHT22;5807;51.606;7.624;2022-09-20T01:30:06;8.50;99.90
11501;DHT22;5807;51.606;7.624;2022-09-20T01:32:43;8.40;99.90
11501;DHT22;5807;51.606;7.624;2022-09-20T01:35:11;8.50;99.90
11501;DHT22;5807;51.606;7.624;2022-09-20T01:37:48;8.20;99.90
11501;DHT22;5807;51.606;7.624;2022-09-20T01:40:22;8.10;99.90
11501;DHT22;5807;51.606;7.624;2022-09-20T01:42:59;8.10;99.90
11501;DHT22;5807;51.606;7.624;2022-09-20T01:45:29;8.10;99.90
11501;DHT22;5807;51.606;7.624;2022-09-20T01:48:06;8.10;99.90
11501;DHT22;5807;51.606;7.624;2022-09-20T01:50:40;7.70;99.90
11501;DHT22;5807;51.606;7.624;2022-09-20T01:53:44;8.20;99.90
11501;DHT22;5807;51.606;7.624;2022-09-20T01:56:35;8.30;99.90
11501;DHT22;5807;51.606;7.624;2022-09-20T01:59:30;8.40;99.90
11501;DHT22;5807;51.606;7.624;2022-09-20T02:02:08;8.50;99.90
11501;DHT22;5807;51.606;7.624;2022-09-20T02:14:03;8.70;99.90
11501;DHT22;5807;51.606;7.624;2022-09-20T02:16:47;8.80;99.90
11501;DHT22;5807;51.606;7.624;2022-09-20T02:19:40;8.80;99.90
11501;DHT22;5807;51.606;7.624;2022-09-20T02:22:33;8.90;99.90
11501;DHT22;5807;51.606;7.624;2022-09-20T02:25:12;9.00;99.90
11501;DHT22;5807;51.606;7.624;2022-09-20T02:27:53;9.00;99.90
11501;DHT22;5807;51.606;7.624;2022-09-20T02:30:33;8.90;99.90
11501;DHT22;5807;51.606;7.624;2022-09-20T02:33:11;9.10;99.90
11501;DHT22;5807;51.606;7.624;2022-09-20T02:35:45;9.10;99.90
11501;DHT22;5807;51.606;7.624;2022-09-20T02:38:31;9.10;99.90
11501;DHT22;5807;51.606;7.624;2022-09-20T02:41:24;9.20;99.90
11501;DHT22;5807;51.606;7.624;2022-09-20T02:43:56;8.80;99.90
11501;DHT22;5807;51.606;7.624;2022-09-20T02:46:29;10.30;99.90
11501;DHT22;5807;51.606;7.624;2022-09-20T02:49:05;9.20;99.90
11501;DHT22;5807;51.606;7.624;2022-09-20T02:51:39;9.00;99.90
11501;DHT22;5807;51.606;7.624;2022-09-20T02:54:15;8.00;99.90
11501;DHT22;5807;51.606;7.624;2022-09-20T02:56:49;9.30;99.90
11501;DHT22;5807;51.606;7.624;2022-09-20T02:59:25;9.30;99.90
11501;DHT22;5807;51.606;7.624;2022-09-20T03:02:03;11.00;99.90
11501;DHT22;5807;51.606;7.624;2022-09-20T03:04:43;11.10;99.90
11501;DHT22;5807;51.606;7.624;2022-09-20T03:07:18;9.30;99.90
11501;DHT22;5807;51.606;7.624;2022-09-20T03:09:53;9.30;99.90
11501;DHT22;5807;51.606;7.624;2022-09-20T03:12:31;9.30;99.90
11501;DHT22;5807;51.606;7.624;2022-09-20T03:15:14;11.60;99.90
11501;DHT22;5807;51.606;7.624;2022-09-20T03:17:48;9.30;99.90
11501;DHT22;5807;51.606;7.624;2022-09-20T03:20:27;9.30;99.90
11501;DHT22;5807;51.606;7.624;2022-09-20T03:23:00;9.70;99.90
11501;DHT22;5807;51.606;7.624;2022-09-20T03:25:38;9.30;99.90
11501;DHT22;5807;51.606;7.624;2022-09-20T03:28:19;9.30;99.90
11501;DHT22;5807;51.606;7.624;2022-09-20T03:30:58;8.80;99.90
11501;DHT22;5807;51.606;7.624;2022-09-20T03:33:34;9.70;99.90
11501;DHT22;5807;51.606;7.624;2022-09-20T03:36:17;9.40;99.90
11501;DHT22;5807;51.606;7.624;2022-09-20T03:39:14;9.40;99.90
11501;DHT22;5807;51.606;7.624;2022-09-20T03:41:56;9.50;99.90
11501;DHT22;5807;51.606;7.624;2022-09-20T03:45:03;9.20;99.90
11501;DHT22;5807;51.606;7.624;2022-09-20T03:48:04;9.40;99.90
11501;DHT22;5807;51.606;7.624;2022-09-20T03:50:44;9.40;99.90
11501;DHT22;5807;51.606;7.624;2022-09-20T03:53:27;9.40;99.90
11501;DHT22;5807;51.606;7.624;2022-09-20T03:56:20;9.40;99.90
11501;DHT22;5807;51.606;7.624;2022-09-20T03:59:07;9.40;99.90
11501;DHT22;5807;51.606;7.624;2022-09-20T04:01:53;9.40;99.90
11501;DHT22;5807;51.606;7.624;2022-09-20T04:04:31;9.40;99.90
11501;DHT22;5807;51.606;7.624;2022-09-20T04:07:12;9.50;99.90
11501;DHT22;5807;51.606;7.624;2022-09-20T04:10:10;9.50;99.90
11501;DHT22;5807;51.606;7.624;2022-09-20T04:12:48;9.50;99.90
11501;DHT22;5807;51.606;7.624;2022-09-20T04:15:24;9.50;99.90
11501;DHT22;5807;51.606;7.624;2022-09-20T04:18:00;9.50;99.90
11501;DHT22;5807;51.606;7.624;2022-09-20T04:20:35;9.30;99.90
11501;DHT22;5807;51.606;7.624;2022-09-20T04:23:14;9.40;99.90
11501;DHT22;5807;51.606;7.624;2022-09-20T04:25:46;9.40;99.90
11501;DHT22;5807;51.606;7.624;2022-09-20T04:28:20;9.40;99.90
11501;DHT22;5807;51.606;7.624;2022-09-20T04:30:48;9.40;99.90
11501;DHT22;5807;51.606;7.624;2022-09-20T04:33:19;9.40;99.90
11501;DHT22;5807;51.606;7.624;2022-09-20T04:35:57;9.30;99.90
11501;DHT22;5807;51.606;7.624;2022-09-20T04:38:45;9.10;99.90
11501;DHT22;5807;51.606;7.624;2022-09-20T04:44:30;9.30;99.90
11501;DHT22;5807;51.606;7.624;2022-09-20T04:47:27;9.30;99.90
11501;DHT22;5807;51.606;7.624;2022-09-20T04:55:56;9.20;99.90
11501;DHT22;5807;51.606;7.624;2022-09-20T04:58:58;9.60;99.90
11501;DHT22;5807;51.606;7.624;2022-09-20T05:14:13;9.20;99.90
11501;DHT22;5807;51.606;7.624;2022-09-20T05:17:03;10.20;99.90
11501;DHT22;5807;51.606;7.624;2022-09-20T05:19:43;8.70;99.90
11501;DHT22;5807;51.606;7.624;2022-09-20T05:22:26;9.70;99.90
11501;DHT22;5807;51.606;7.624;2022-09-20T05:25:09;9.30;99.90
11501;DHT22;5807;51.606;7.624;2022-09-20T05:27:44;9.30;99.90
11501;DHT22;5807;51.606;7.624;2022-09-20T05:30:22;9.40;99.90
11501;DHT22;5807;51.606;7.624;2022-09-20T05:32:56;9.40;99.90
11501;DHT22;5807;51.606;7.624;2022-09-20T05:35:31;9.40;99.90
11501;DHT22;5807;51.606;7.624;2022-09-20T05:38:04;9.50;99.90
11501;DHT22;5807;51.606;7.624;2022-09-20T05:40:42;9.50;99.90
11501;DHT22;5807;51.606;7.624;2022-09-20T05:43:15;9.70;99.90
11501;DHT22;5807;51.606;7.624;2022-09-20T05:46:02;9.90;99.90
11501;DHT22;5807;51.606;7.624;2022-09-20T05:48:38;9.60;99.90
11501;DHT22;5807;51.606;7.624;2022-09-20T05:51:30;9.50;99.90
11501;DHT22;5807;51.606;7.624;2022-09-20T05:54:23;9.90;99.90
11501;DHT22;5807;51.606;7.624;2022-09-20T05:56:58;9.90;99.90
11501;DHT22;5807;51.606;7.624;2022-09-20T05:59:38;9.90;99.90
11501;DHT22;5807;51.606;7.624;2022-09-20T06:02:27;9.90;99.90
11501;DHT22;5807;51.606;7.624;2022-09-20T06:05:00;10.00;99.90
11501;DHT22;5807;51.606;7.624;2022-09-20T06:07:41;10.00;99.90
11501;DHT22;5807;51.606;7.624;2022-09-20T06:13:26;10.20;99.90
11501;DHT22;5807;51.606;7.624;2022-09-20T06:15:58;10.20;99.90
11501;DHT22;5807;51.606;7.624;2022-09-20T06:18:31;10.30;99.90
11501;DHT22;5807;51.606;7.624;2022-09-20T06:21:08;10.40;99.90
11501;DHT22;5807;51.606;7.624;2022-09-20T06:23:39;10.40;99.90
11501;DHT22;5807;51.606;7.624;2022-09-20T06:26:09;10.00;99.90
11501;DHT22;5807;51.606;7.624;2022-09-20T06:28:41;10.50;99.90
11501;DHT22;5807;51.606;7.624;2022-09-20T06:31:09;10.50;99.90
11501;DHT22;5807;51.606;7.624;2022-09-20T06:33:42;10.70;99.90
11501;DHT22;5807;51.606;7.624;2022-09-20T06:36:14;10.30;99.90
11501;DHT22;5807;51.606;7.624;2022-09-20T06:39:04;10.70;99.90
11501;DHT22;5807;51.606;7.624;2022-09-20T06:41:49;10.80;99.90
11501;DHT22;5807;51.606;7.624;2022-09-20T06:44:16;10.80;99.90
11501;DHT22;5807;51.606;7.624;2022-09-20T06:46:57;10.90;99.90
11501;DHT22;5807;51.606;7.624;2022-09-20T06:49:26;11.50;99.90
11501;DHT22;5807;51.606;7.624;2022-09-20T06:51:53;11.50;99.90
11501;DHT22;5807;51.606;7.624;2022-09-20T06:54:21;11.90;99.90
11501;DHT22;5807;51.606;7.624;2022-09-20T06:56:49;12.10;99.90
11501;DHT22;5807;51.606;7.624;2022-09-20T06:59:17;12.30;99.90
11501;DHT22;5807;51.606;7.624;2022-09-20T07:01:43;12.20;99.90
11501;DHT22;5807;51.606;7.624;2022-09-20T07:04:10;12.30;99.90
11501;DHT22;5807;51.606;7.624;2022-09-20T07:06:38;13.10;99.90
11501;DHT22;5807;51.606;7.624;2022-09-20T07:09:06;12.80;99.90
11501;DHT22;5807;51.606;7.624;2022-09-20T07:11:33;13.10;99.90
11501;DHT22;5807;51.606;7.624;2022-09-20T07:14:00;13.30;99.90
11501;DHT22;5807;51.606;7.624;2022-09-20T07:16:27;13.50;99.90
11501;DHT22;5807;51.606;7.624;2022-09-20T07:18:54;13.50;99.90
11501;DHT22;5807;51.606;7.624;2022-09-20T07:21:22;13.50;99.90
11501;DHT22;5807;51.606;7.624;2022-09-20T07:23:50;13.50;99.90
11501;DHT22;5807;51.606;7.624;2022-09-20T07:26:20;13.50;99.90
11501;DHT22;5807;51.606;7.624;2022-09-20T07:28:47;13.60;99.90
11501;DHT22;5807;51.606;7.624;2022-09-20T07:31:15;13.80;99.90
11501;DHT22;5807;51.606;7.624;2022-09-20T07:33:42;13.90;99.90
11501;DHT22;5807;51.606;7.624;2022-09-20T07:36:09;14.00;99.90
11501;DHT22;5807;51.606;7.624;2022-09-20T07:38:37;14.10;99.90
11501;DHT22;5807;51.606;7.624;2022-09-20T07:41:06;14.10;99.90
11501;DHT22;5807;51.606;7.624;2022-09-20T07:43:33;14.10;99.90
11501;DHT22;5807;51.606;7.624;2022-09-20T07:46:00;14.20;99.90
11501;DHT22;5807;51.606;7.624;2022-09-20T07:48:29;14.30;99.90
11501;DHT22;5807;51.606;7.624;2022-09-20T07:50:58;14.50;99.90
11501;DHT22;5807;51.606;7.624;2022-09-20T07:53:27;14.70;99.90
11501;DHT22;5807;51.606;7.624;2022-09-20T07:55:58;14.90;99.90
11501;DHT22;5807;51.606;7.624;2022-09-20T07:58:27;15.10;99.90
11501;DHT22;5807;51.606;7.624;2022-09-20T08:00:56;15.40;99.90
11501;DHT22;5807;51.606;7.624;2022-09-20T08:03:23;15.60;99.90
11501;DHT22;5807;51.606;7.624;2022-09-20T08:05:51;15.80;99.90
11501;DHT22;5807;51.606;7.624;2022-09-20T08:08:18;15.90;99.90
11501;DHT22;5807;51.606;7.624;2022-09-20T08:10:45;16.00;99.90
11501;DHT22;5807;51.606;7.624;2022-09-20T08:13:13;15.90;99.90
11501;DHT22;5807;51.606;7.624;2022-09-20T08:15:41;15.70;99.90
11501;DHT22;5807;51.606;7.624;2022-09-20T08:18:09;15.70;99.90
11501;DHT22;5807;51.606;7.624;2022-09-20T08:20:36;15.40;99.90
11501;DHT22;5807;51.606;7.624;2022-09-20T08:23:03;14.50;99.90
11501;DHT22;5807;51.606;7.624;2022-09-20T08:27:57;15.00;99.90
11501;DHT22;5807;51.606;7.624;2022-09-20T08:30:24;15.20;99.90
11501;DHT22;5807;51.606;7.624;2022-09-20T08:32:52;15.20;99.90
11501;DHT22;5807;51.606;7.624;2022-09-20T08:35:20;15.40;99.90
11501;DHT22;5807;51.606;7.624;2022-09-20T08:37:47;15.60;99.90
11501;DHT22;5807;51.606;7.624;2022-09-20T08:40:18;15.60;99.90
11501;DHT22;5807;51.606;7.624;2022-09-20T08:42:46;15.40;99.90
11501;DHT22;5807;51.606;7.624;2022-09-20T08:45:15;15.30;99.90
11501;DHT22;5807;51.606;7.624;2022-09-20T08:47:47;15.30;99.90
11501;DHT22;5807;51.606;7.624;2022-09-20T08:50:16;15.40;99.90
11501;DHT22;5807;51.606;7.624;2022-09-20T08:52:45;15.50;99.90
11501;DHT22;5807;51.606;7.624;2022-09-20T08:55:16;15.40;99.90
11501;DHT22;5807;51.606;7.624;2022-09-20T08:57:52;15.50;99.90
11501;DHT22;5807;51.606;7.624;2022-09-20T09:00:21;15.50;99.90
11501;DHT22;5807;51.606;7.624;2022-09-20T09:02:50;15.50;99.90
11501;DHT22;5807;51.606;7.624;2022-09-20T09:05:30;15.40;99.90
11501;DHT22;5807;51.606;7.624;2022-09-20T09:07:58;15.30;99.90
11501;DHT22;5807;51.606;7.624;2022-09-20T09:10:28;15.30;99.90
11501;DHT22;5807;51.606;7.624;2022-09-20T09:12:58;15.30;99.90
11501;DHT22;5807;51.606;7.624;2022-09-20T09:15:28;15.40;99.90
11501;DHT22;5807;51.606;7.624;2022-09-20T09:17:56;15.40;99.90
11501;DHT22;5807;51.606;7.624;2022-09-20T09:20:23;15.70;99.90
11501;DHT22;5807;51.606;7.624;2022-09-20T09:22:59;15.90;99.90
11501;DHT22;5807;51.606;7.624;2022-09-20T09:25:28;16.00;99.90
11501;DHT22;5807;51.606;7.624;2022-09-20T09:28:01;16.10;99.90
11501;DHT22;5807;51.606;7.624;2022-09-20T09:30:52;16.10;99.90
11501;DHT22;5807;51.606;7.624;2022-09-20T09:33:42;16.20;99.90
11501;DHT22;5807;51.606;7.624;2022-09-20T09:36:14;16.20;99.90
11501;DHT22;5807;51.606;7.624;2022-09-20T09:38:43;16.30;99.90
11501;DHT22;5807;51.606;7.624;2022-09-20T09:41:22;16.20;99.90
11501;DHT22;5807;51.606;7.624;2022-09-20T09:43:58;16.30;99.90
11501;DHT22;5807;51.606;7.624;2022-09-20T09:46:29;16.50;99.90
11501;DHT22;5807;51.606;7.624;2022-09-20T09:49:06;16.60;99.90
11501;DHT22;5807;51.606;7.624;2022-09-20T09:51:34;16.80;99.90
11501;DHT22;5807;51.606;7.624;2022-09-20T09:54:03;16.60;99.90
11501;DHT22;5807;51.606;7.624;2022-09-20T09:56:45;16.40;99.90
11501;DHT22;5807;51.606;7.624;2022-09-20T09:59:36;16.20;99.90
11501;DHT22;5807;51.606;7.624;2022-09-20T10:02:22;15.90;99.90
11501;DHT22;5807;51.606;7.624;2022-09-20T10:05:00;15.90;99.90
11501;DHT22;5807;51.606;7.624;2022-09-20T10:07:34;16.30;99.90
11501;DHT22;5807;51.606;7.624;2022-09-20T10:10:13;16.60;99.90
11501;DHT22;5807;51.606;7.624;2022-09-20T10:12:56;16.80;99.90
11501;DHT22;5807;51.606;7.624;2022-09-20T10:15:31;16.50;99.90
11501;DHT22;5807;51.606;7.624;2022-09-20T10:18:11;16.40;99.90
11501;DHT22;5807;51.606;7.624;2022-09-20T10:21:05;16.40;99.90
11501;DHT22;5807;51.606;7.624;2022-09-20T10:23:48;16.30;99.90
11501;DHT22;5807;51.606;7.624;2022-09-20T10:26:35;16.20;99.90
11501;DHT22;5807;51.606;7.624;2022-09-20T10:29:09;16.20;99.90
11501;DHT22;5807;51.606;7.624;2022-09-20T10:31:46;16.40;99.90
11501;DHT22;5807;51.606;7.624;2022-09-20T10:34:46;16.80;99.90
11501;DHT22;5807;51.606;7.624;2022-09-20T10:37:20;17.10;99.90
11501;DHT22;5807;51.606;7.624;2022-09-20T10:39:57;17.40;99.90
11501;DHT22;5807;51.606;7.624;2022-09-20T10:42:36;17.70;99.90
11501;DHT22;5807;51.606;7.624;2022-09-20T10:45:25;17.90;99.90
11501;DHT22;5807;51.606;7.624;2022-09-20T10:48:01;17.60;99.90
11501;DHT22;5807;51.606;7.624;2022-09-20T10:50:35;17.00;99.90
11501;DHT22;5807;51.606;7.624;2022-09-20T10:53:14;16.80;99.90
11501;DHT22;5807;51.606;7.624;2022-09-20T10:55:49;16.60;99.90
11501;DHT22;5807;51.606;7.624;2022-09-20T10:58:51;16.40;99.90
11501;DHT22;5807;51.606;7.624;2022-09-20T11:01:28;16.70;99.90
11501;DHT22;5807;51.606;7.624;2022-09-20T11:06:53;17.20;99.90
11501;DHT22;5807;51.606;7.624;2022-09-20T11:09:24;17.20;99.90
11501;DHT22;5807;51.606;7.624;2022-09-20T11:11:57;17.20;99.90
11501;DHT22;5807;51.606;7.624;2022-09-20T11:14:33;17.20;99.90
11501;DHT22;5807;51.606;7.624;2022-09-20T11:17:05;17.10;99.90
11501;DHT22;5807;51.606;7.624;2022-09-20T11:19:45;17.00;99.90
11501;DHT22;5807;51.606;7.624;2022-09-20T11:22:17;16.60;99.90
11501;DHT22;5807;51.606;7.624;2022-09-20T11:24:48;16.40;99.90
11501;DHT22;5807;51.606;7.624;2022-09-20T11:27:19;16.10;99.90
11501;DHT22;5807;51.606;7.624;2022-09-20T11:29:52;16.40;99.90
11501;DHT22;5807;51.606;7.624;2022-09-20T11:32:25;15.90;99.90
11501;DHT22;5807;51.606;7.624;2022-09-20T11:34:55;16.00;99.90
11501;DHT22;5807;51.606;7.624;2022-09-20T11:37:26;15.90;99.90
11501;DHT22;5807;51.606;7.624;2022-09-20T11:39:54;16.10;99.90
11501;DHT22;5807;51.606;7.624;2022-09-20T11:42:26;16.30;99.90
11501;DHT22;5807;51.606;7.624;2022-09-20T11:44:55;16.50;99.90
11501;DHT22;5807;51.606;7.624;2022-09-20T11:47:39;16.80;99.90
11501;DHT22;5807;51.606;7.624;2022-09-20T11:53:19;17.60;99.90
11501;DHT22;5807;51.606;7.624;2022-09-20T11:55:53;17.20;99.90
11501;DHT22;5807;51.606;7.624;2022-09-20T11:58:23;16.90;99.90
11501;DHT22;5807;51.606;7.624;2022-09-20T12:00:55;16.70;99.90
11501;DHT22;5807;51.606;7.624;2022-09-20T12:03:29;16.70;99.90
11501;DHT22;5807;51.606;7.624;2022-09-20T12:05:57;16.60;99.90
11501;DHT22;5807;51.606;7.624;2022-09-20T12:08:27;16.50;99.90
11501;DHT22;5807;51.606;7.624;2022-09-20T12:10:58;16.30;99.90
11501;DHT22;5807;51.606;7.624;2022-09-20T12:13:26;16.30;99.90
11501;DHT22;5807;51.606;7.624;2022-09-20T12:16:03;16.00;99.90
11501;DHT22;5807;51.606;7.624;2022-09-20T12:22:15;15.80;99.90
11501;DHT22;5807;51.606;7.624;2022-09-20T12:27:22;15.60;99.90
11501;DHT22;5807;51.606;7.624;2022-09-20T12:30:16;15.30;99.90
11501;DHT22;5807;51.606;7.624;2022-09-20T12:32:47;15.00;99.90
11501;DHT22;5807;51.606;7.624;2022-09-20T12:38:32;14.80;99.90
11501;DHT22;5807;51.606;7.624;2022-09-20T12:41:02;14.80;99.90
11501;DHT22;5807;51.606;7.624;2022-09-20T12:43:31;15.70;99.90
11501;DHT22;5807;51.606;7.624;2022-09-20T12:45:59;15.70;99.90
11501;DHT22;5807;51.606;7.624;2022-09-20T12:48:33;16.70;99.90
11501;DHT22;5807;51.606;7.624;2022-09-20T12:51:18;17.50;99.90
11501;DHT22;5807;51.606;7.624;2022-09-20T12:54:06;17.70;99.90
11501;DHT22;5807;51.606;7.624;2022-09-20T12:56:36;17.30;99.90
11501;DHT22;5807;51.606;7.624;2022-09-20T12:59:06;17.00;99.90
11501;DHT22;5807;51.606;7.624;2022-09-20T13:01:46;16.80;99.90
11501;DHT22;5807;51.606;7.624;2022-09-20T13:10:22;17.80;99.90
11501;DHT22;5807;51.606;7.624;2022-09-20T13:12:56;18.60;99.90
11501;DHT22;5807;51.606;7.624;2022-09-20T13:15:25;18.60;99.90
11501;DHT22;5807;51.606;7.624;2022-09-20T13:17:54;18.80;97.40
11501;DHT22;5807;51.606;7.624;2022-09-20T13:20:24;18.80;97.50
11501;DHT22;5807;51.606;7.624;2022-09-20T13:27:53;18.50;96.90
11501;DHT22;5807;51.606;7.624;2022-09-20T13:30:24;18.50;96.80
11501;DHT22;5807;51.606;7.624;2022-09-20T13:35:21;18.50;96.90
11501;DHT22;5807;51.606;7.624;2022-09-20T13:37:55;18.60;95.90
11501;DHT22;5807;51.606;7.624;2022-09-20T13:40:25;18.50;95.80
11501;DHT22;5807;51.606;7.624;2022-09-20T13:42:59;18.60;96.80
11501;DHT22;5807;51.606;7.624;2022-09-20T13:45:27;18.80;99.40
11501;DHT22;5807;51.606;7.624;2022-09-20T13:47:58;18.10;94.20
11501;DHT22;5807;51.606;7.624;2022-09-20T13:50:28;18.10;94.60
11501;DHT22;5807;51.606;7.624;2022-09-20T13:52:58;18.10;95.80
11501;DHT22;5807;51.606;7.624;2022-09-20T13:55:30;18.30;95.00
11501;DHT22;5807;51.606;7.624;2022-09-20T13:58:00;18.60;93.20
11501;DHT22;5807;51.606;7.624;2022-09-20T14:00:28;18.60;93.10
11501;DHT22;5807;51.606;7.624;2022-09-20T14:02:57;18.70;95.50
11501;DHT22;5807;51.606;7.624;2022-09-20T14:05:27;18.60;95.00
11501;DHT22;5807;51.606;7.624;2022-09-20T14:07:59;18.30;91.60
11501;DHT22;5807;51.606;7.624;2022-09-20T14:10:32;17.90;94.30
11501;DHT22;5807;51.606;7.624;2022-09-20T14:13:02;17.90;93.70
11501;DHT22;5807;51.606;7.624;2022-09-20T14:15:34;18.00;92.90
11501;DHT22;5807;51.606;7.624;2022-09-20T14:18:13;18.00;93.00
11501;DHT22;5807;51.606;7.624;2022-09-20T14:20:41;17.80;91.50
11501;DHT22;5807;51.606;7.624;2022-09-20T14:23:19;17.50;94.90
11501;DHT22;5807;51.606;7.624;2022-09-20T14:26:06;17.40;95.20
11501;DHT22;5807;51.606;7.624;2022-09-20T14:28:33;17.30;94.10
11501;DHT22;5807;51.606;7.624;2022-09-20T14:31:05;16.70;94.50
11501;DHT22;5807;51.606;7.624;2022-09-20T14:33:33;16.70;95.50
11501;DHT22;5807;51.606;7.624;2022-09-20T14:36:12;16.60;97.40
11501;DHT22;5807;51.606;7.624;2022-09-20T14:38:44;16.50;98.50
11501;DHT22;5807;51.606;7.624;2022-09-20T14:41:13;16.60;97.90
11501;DHT22;5807;51.606;7.624;2022-09-20T14:46:14;17.10;97.20
11501;DHT22;5807;51.606;7.624;2022-09-20T14:48:42;17.10;97.30
11501;DHT22;5807;51.606;7.624;2022-09-20T14:51:21;17.40;97.50
11501;DHT22;5807;51.606;7.624;2022-09-20T14:54:03;17.20;96.00
11501;DHT22;5807;51.606;7.624;2022-09-20T14:56:41;17.00;97.70
11501;DHT22;5807;51.606;7.624;2022-09-20T14:59:22;17.00;97.80
11501;DHT22;5807;51.606;7.624;2022-09-20T15:01:56;17.10;97.20
11501;DHT22;5807;51.606;7.624;2022-09-20T15:04:25;17.20;96.90
11501;DHT22;5807;51.606;7.624;2022-09-20T15:06:55;17.60;96.20
11501;DHT22;5807;51.606;7.624;2022-09-20T15:12:05;17.70;96.80
11501;DHT22;5807;51.606;7.624;2022-09-20T15:14:34;17.70;96.60
11501;DHT22;5807;51.606;7.624;2022-09-20T15:17:01;17.70;96.10
11501;DHT22;5807;51.606;7.624;2022-09-20T15:21:56;18.00;94.60
11501;DHT22;5807;51.606;7.624;2022-09-20T15:37:08;17.00;97.70
11501;DHT22;5807;51.606;7.624;2022-09-20T15:42:04;16.70;98.60
11501;DHT22;5807;51.606;7.624;2022-09-20T15:52:20;15.90;99.90
11501;DHT22;5807;51.606;7.624;2022-09-20T15:57:18;15.70;99.90
11501;DHT22;5807;51.606;7.624;2022-09-20T15:59:45;15.70;99.90
11501;DHT22;5807;51.606;7.624;2022-09-20T16:02:13;15.60;99.90
11501;DHT22;5807;51.606;7.624;2022-09-20T16:04:42;19.10;99.90
11501;DHT22;5807;51.606;7.624;2022-09-20T16:07:09;15.40;99.90
11501;DHT22;5807;51.606;7.624;2022-09-20T16:09:36;15.30;99.90
11501;DHT22;5807;51.606;7.624;2022-09-20T16:14:32;14.90;99.90
11501;DHT22;5807;51.606;7.624;2022-09-20T16:16:59;14.50;99.90
11501;DHT22;5807;51.606;7.624;2022-09-20T16:19:26;14.50;99.90
11501;DHT22;5807;51.606;7.624;2022-09-20T16:21:53;14.30;99.90
11501;DHT22;5807;51.606;7.624;2022-09-20T16:26:49;13.80;99.90
11501;DHT22;5807;51.606;7.624;2022-09-20T16:34:15;13.30;99.90
11501;DHT22;5807;51.606;7.624;2022-09-20T16:36:44;13.30;99.90
11501;DHT22;5807;51.606;7.624;2022-09-20T16:39:11;13.20;99.90
11501;DHT22;5807;51.606;7.624;2022-09-20T16:41:39;13.10;99.90
11501;DHT22;5807;51.606;7.624;2022-09-20T16:44:06;13.20;99.90
11501;DHT22;5807;51.606;7.624;2022-09-20T16:46:34;12.90;99.90
11501;DHT22;5807;51.606;7.624;2022-09-20T16:49:04;12.70;99.90
11501;DHT22;5807;51.606;7.624;2022-09-20T16:51:33;12.60;99.90
11501;DHT22;5807;51.606;7.624;2022-09-20T16:54:07;12.50;99.90
11501;DHT22;5807;51.606;7.624;2022-09-20T16:56:38;12.40;99.90
11501;DHT22;5807;51.606;7.624;2022-09-20T16:59:05;12.10;99.90
11501;DHT22;5807;51.606;7.624;2022-09-20T17:01:34;12.00;99.90
11501;DHT22;5807;51.606;7.624;2022-09-20T17:04:02;12.30;99.90
11501;DHT22;5807;51.606;7.624;2022-09-20T17:08:58;11.90;99.90
11501;DHT22;5807;51.606;7.624;2022-09-20T17:11:27;11.90;99.90
11501;DHT22;5807;51.606;7.624;2022-09-20T17:13:55;12.00;99.90
11501;DHT22;5807;51.606;7.624;2022-09-20T17:16:24;11.90;99.90
11501;DHT22;5807;51.606;7.624;2022-09-20T17:18:55;11.80;99.90
11501;DHT22;5807;51.606;7.624;2022-09-20T17:21:22;11.80;99.90
11501;DHT22;5807;51.606;7.624;2022-09-20T17:23:52;11.70;99.90
11501;DHT22;5807;51.606;7.624;2022-09-20T17:26:22;12.30;99.90
11501;DHT22;5807;51.606;7.624;2022-09-20T17:28:50;11.90;99.90
11501;DHT22;5807;51.606;7.624;2022-09-20T17:31:19;11.70;99.90
11501;DHT22;5807;51.606;7.624;2022-09-20T17:33:48;11.70;99.90
11501;DHT22;5807;51.606;7.624;2022-09-20T17:36:18;11.70;99.90
11501;DHT22;5807;51.606;7.624;2022-09-20T17:38:46;11.70;99.90
11501;DHT22;5807;51.606;7.624;2022-09-20T17:41:15;11.60;99.90
11501;DHT22;5807;51.606;7.624;2022-09-20T17:43:43;11.60;99.90
11501;DHT22;5807;51.606;7.624;2022-09-20T17:46:12;11.60;99.90
11501;DHT22;5807;51.606;7.624;2022-09-20T17:48:40;11.50;99.90
11501;DHT22;5807;51.606;7.624;2022-09-20T17:51:14;11.50;99.90
11501;DHT22;5807;51.606;7.624;2022-09-20T17:53:42;11.40;99.90
11501;DHT22;5807;51.606;7.624;2022-09-20T17:56:10;11.40;99.90
11501;DHT22;5807;51.606;7.624;2022-09-20T17:58:38;11.30;99.90
11501;DHT22;5807;51.606;7.624;2022-09-20T18:01:06;11.20;99.90
11501;DHT22;5807;51.606;7.624;2022-09-20T18:03:34;11.30;99.90
11501;DHT22;5807;51.606;7.624;2022-09-20T18:06:12;11.40;99.90
11501;DHT22;5807;51.606;7.624;2022-09-20T18:08:40;11.20;99.90
11501;DHT22;5807;51.606;7.624;2022-09-20T18:25:53;11.00;99.90
11501;DHT22;5807;51.606;7.624;2022-09-20T18:28:38;10.90;99.90
11501;DHT22;5807;51.606;7.624;2022-09-20T18:31:05;10.90;99.90
11501;DHT22;5807;51.606;7.624;2022-09-20T18:33:33;11.60;99.90
11501;DHT22;5807;51.606;7.624;2022-09-20T18:36:02;10.80;99.90
11501;DHT22;5807;51.606;7.624;2022-09-20T18:38:29;10.70;99.90